createdAt,value
2018-11-11T18:11:08.670Z,99490.00
2018-11-11T18:12:12.294Z,99493.00
2018-11-11T18:13:15.973Z,99485.00
2018-11-11T18:14:19.638Z,99485.00
2018-11-11T18:15:24.652Z,99480.00
2018-11-11T18:16:28.470Z,99488.00
2018-11-11T18:17:31.927Z,99488.00
2018-11-11T18:18:35.673Z,99491.00
2018-11-11T18:19:39.025Z,99493.00
2018-11-11T18:20:42.739Z,99490.00
2018-11-11T18:21:46.438Z,99496.00
2018-11-11T18:22:50.392Z,99494.00
2018-11-11T18:23:54.148Z,99495.00
2018-11-11T18:24:57.243Z,99493.00
2018-11-11T18:26:01.134Z,99498.00
2018-11-11T18:27:04.851Z,99500.00
2018-11-11T18:28:08.772Z,99500.00
2018-11-11T18:29:12.492Z,99494.00
2018-11-11T18:30:17.425Z,99484.00
2018-11-11T18:31:21.112Z,99482.00
2018-11-11T18:32:24.523Z,99481.00
2018-11-11T18:33:28.354Z,99485.00
2018-11-11T18:34:32.235Z,99489.00
2018-11-11T18:35:36.017Z,99490.00
2018-11-11T18:36:39.634Z,99488.00
2018-11-11T18:37:43.521Z,99494.00
2018-11-11T18:38:47.219Z,99489.00
2018-11-11T18:39:51.284Z,99497.00
2018-11-11T18:40:54.802Z,99494.00
2018-11-11T18:41:58.563Z,99490.00
2018-11-11T18:43:02.176Z,99491.00
2018-11-11T18:44:06.046Z,99479.00
2018-11-11T18:45:09.638Z,99479.00
2018-11-11T18:46:13.438Z,99474.00
2018-11-11T18:47:17.255Z,99466.00
2018-11-11T18:48:20.931Z,99462.00
2018-11-11T18:49:24.406Z,99462.00
2018-11-11T18:50:29.440Z,99460.00
2018-11-11T18:51:33.137Z,99448.00
2018-11-11T18:52:36.535Z,99456.00
2018-11-11T18:53:40.164Z,99441.00
2018-11-11T18:54:44.020Z,99438.00
2018-11-11T18:55:47.624Z,99436.00
2018-11-11T18:56:51.385Z,99437.00
2018-11-11T18:57:55.034Z,99436.00
2018-11-11T18:58:58.721Z,99430.00
2018-11-11T19:00:02.363Z,99424.00
2018-11-11T19:01:06.198Z,99428.00
2018-11-11T19:02:09.942Z,99425.00
2018-11-11T19:03:13.687Z,99420.00
2018-11-11T19:04:17.212Z,99412.00
2018-11-11T19:05:21.576Z,99407.00
2018-11-11T19:06:25.029Z,99403.00
2018-11-11T19:07:28.689Z,99403.00
2018-11-11T19:08:31.730Z,99402.00
2018-11-11T19:09:35.325Z,99401.00
2018-11-11T19:10:39.166Z,99402.00
2018-11-11T19:11:42.831Z,99410.00
2018-11-11T19:12:47.263Z,99414.00
2018-11-11T19:13:51.128Z,99415.00
2018-11-11T19:14:54.633Z,99426.00
2018-11-11T19:15:58.520Z,99431.00
2018-11-11T19:17:02.097Z,99437.00
2018-11-11T19:18:06.003Z,99444.00
2018-11-11T19:19:09.497Z,99450.00
2018-11-11T19:20:14.254Z,99446.00
2018-11-11T19:21:17.999Z,99452.00
2018-11-11T19:22:21.141Z,99453.00
2018-11-11T19:23:24.703Z,99452.00
2018-11-11T19:24:28.589Z,99454.00
2018-11-11T19:25:32.647Z,99450.00
2018-11-11T19:26:36.251Z,99462.00
2018-11-11T19:27:39.800Z,99461.00
2018-11-11T19:28:43.565Z,99460.00
2018-11-11T19:29:47.243Z,99468.00
2018-11-11T19:30:51.167Z,99463.00
2018-11-11T19:31:54.944Z,99464.00
2018-11-11T19:32:58.651Z,99469.00
2018-11-11T19:34:02.141Z,99471.00
2018-11-11T19:35:06.040Z,99472.00
2018-11-11T19:36:09.514Z,99470.00
2018-11-11T19:37:13.285Z,99475.00
2018-11-11T19:38:16.877Z,99457.00
2018-11-11T19:39:20.375Z,99463.00
2018-11-11T19:40:25.119Z,99469.00
2018-11-11T19:41:28.704Z,99466.00
2018-11-11T19:42:32.179Z,99465.00
2018-11-11T19:43:35.859Z,99466.00
2018-11-11T19:44:39.569Z,99466.00
2018-11-11T19:45:43.395Z,99468.00
2018-11-11T19:46:47.061Z,99466.00
2018-11-11T19:47:50.843Z,99468.00
2018-11-11T19:48:54.423Z,99471.00
2018-11-11T19:49:57.478Z,99469.00
2018-11-11T19:51:01.212Z,99476.00
2018-11-11T19:52:04.791Z,99471.00
2018-11-11T19:53:08.315Z,99471.00
2018-11-11T19:54:11.895Z,99470.00
2018-11-11T19:55:16.022Z,99472.00
2018-11-11T19:56:19.770Z,99471.00
2018-11-11T19:57:23.295Z,99468.00
2018-11-11T19:58:26.982Z,99478.00
2018-11-11T19:59:30.671Z,99474.00
2018-11-11T20:00:35.059Z,99472.00
2018-11-11T20:01:38.994Z,99480.00
2018-11-11T20:02:43.412Z,99485.00
2018-11-11T20:03:47.066Z,99481.00
2018-11-11T20:04:50.960Z,99477.00
2018-11-11T20:05:54.129Z,99479.00
2018-11-11T20:06:57.775Z,99482.00
2018-11-11T20:08:02.278Z,99484.00
2018-11-11T20:09:06.087Z,99480.00
2018-11-11T20:10:09.784Z,99478.00
2018-11-11T20:11:13.561Z,99480.00
2018-11-11T20:12:17.238Z,99492.00
2018-11-11T20:13:21.067Z,99483.00
2018-11-11T20:14:24.672Z,99480.00
2018-11-11T20:15:29.167Z,99482.00
2018-11-11T20:16:32.675Z,99481.00
2018-11-11T20:17:36.499Z,99474.00
2018-11-11T20:18:40.304Z,99466.00
2018-11-11T20:19:44.026Z,99463.00
2018-11-11T20:20:47.507Z,99464.00
2018-11-11T20:21:51.208Z,99459.00
2018-11-11T20:22:54.671Z,99459.00
2018-11-11T20:23:58.244Z,99446.00
2018-11-11T20:25:01.985Z,99445.00
2018-11-11T20:26:05.573Z,99445.00
2018-11-11T20:27:09.344Z,99439.00
2018-11-11T20:28:13.214Z,99430.00
2018-11-11T20:29:16.979Z,99431.00
2018-11-11T20:30:21.635Z,99435.00
2018-11-11T20:31:25.377Z,99428.00
2018-11-11T20:32:29.071Z,99431.00
2018-11-11T20:33:32.749Z,99428.00
2018-11-11T20:34:36.571Z,99422.00
2018-11-11T20:35:40.205Z,99422.00
2018-11-11T20:36:43.843Z,99423.00
2018-11-11T20:37:47.420Z,99427.00
2018-11-11T20:38:51.208Z,99423.00
2018-11-11T20:39:55.019Z,99418.00
2018-11-11T20:40:58.918Z,99413.00
2018-11-11T20:42:02.524Z,99419.00
2018-11-11T20:43:06.364Z,99418.00
2018-11-11T20:44:10.372Z,99419.00
2018-11-11T20:45:14.887Z,99423.00
2018-11-11T20:46:18.586Z,99417.00
2018-11-11T20:47:22.156Z,99407.00
2018-11-11T20:48:25.916Z,99398.00
2018-11-11T20:49:29.515Z,99150.00
2018-11-11T20:50:34.124Z,99406.00
2018-11-11T20:51:37.804Z,99407.00
2018-11-11T20:52:41.946Z,99406.00
2018-11-11T20:53:45.595Z,99402.00
2018-11-11T20:54:48.896Z,99395.00
2018-11-11T20:55:52.579Z,99395.00
2018-11-11T20:56:56.378Z,99394.00
2018-11-11T20:58:00.302Z,99398.00
2018-11-11T20:59:04.039Z,99398.00
2018-11-11T21:00:07.860Z,99398.00
2018-11-11T21:01:11.466Z,99390.00
2018-11-11T21:02:15.235Z,99397.00
2018-11-11T21:03:18.935Z,99395.00
2018-11-11T21:04:22.845Z,99399.00
2018-11-11T21:05:27.511Z,99389.00
2018-11-11T21:06:31.160Z,99395.00
2018-11-11T21:07:34.978Z,99395.00
2018-11-11T21:08:38.526Z,99396.00
2018-11-11T21:09:42.208Z,99400.00
2018-11-11T21:10:45.957Z,99399.00
2018-11-11T21:11:49.922Z,99401.00
2018-11-11T21:12:53.730Z,99400.00
2018-11-11T21:13:57.515Z,99403.00
2018-11-11T21:15:01.098Z,99407.00
2018-11-11T21:16:04.775Z,99410.00
2018-11-11T21:17:08.308Z,99408.00
2018-11-11T21:18:11.891Z,99407.00
2018-11-11T21:19:15.601Z,99408.00
2018-11-11T21:20:20.270Z,99409.00
2018-11-11T21:21:23.833Z,99407.00
2018-11-11T21:22:27.675Z,99402.00
2018-11-11T21:23:31.176Z,99403.00
2018-11-11T21:24:35.064Z,99403.00
2018-11-11T21:25:38.523Z,99400.00
2018-11-11T21:26:42.247Z,99400.00
2018-11-11T21:27:46.511Z,99395.00
2018-11-11T21:28:50.146Z,99395.00
2018-11-11T21:29:53.627Z,99398.00
2018-11-11T21:30:57.310Z,99396.00
2018-11-11T21:32:00.887Z,99394.00
2018-11-11T21:33:04.237Z,99395.00
2018-11-11T21:34:08.000Z,99395.00
2018-11-11T21:35:11.944Z,99397.00
2018-11-11T21:36:15.696Z,99397.00
2018-11-11T21:37:19.387Z,99394.00
2018-11-11T21:38:23.312Z,99390.00
2018-11-11T21:39:26.883Z,99400.00
2018-11-11T21:40:30.652Z,99400.00
2018-11-11T21:41:34.364Z,99392.00
2018-11-11T21:42:38.147Z,99398.00
2018-11-11T21:43:41.991Z,99389.00
2018-11-11T21:44:45.962Z,99392.00
2018-11-11T21:45:49.560Z,99398.00
2018-11-11T21:46:53.263Z,99401.00
2018-11-11T21:47:56.866Z,99406.00
2018-11-11T21:49:00.632Z,99400.00
2018-11-11T21:50:04.233Z,99404.00
2018-11-11T21:51:08.096Z,99407.00
2018-11-11T21:52:11.832Z,99410.00
2018-11-11T21:53:15.723Z,99409.00
2018-11-11T21:54:19.318Z,99409.00
2018-11-11T21:55:22.415Z,99416.00
2018-11-11T21:56:25.847Z,99412.00
2018-11-11T21:57:29.277Z,99419.00
2018-11-11T21:58:32.743Z,99415.00
2018-11-11T21:59:36.635Z,99411.00
2018-11-11T22:00:39.767Z,99414.00
2018-11-11T22:01:43.447Z,99414.00
2018-11-11T22:02:47.389Z,99411.00
2018-11-11T22:03:50.964Z,99411.00
2018-11-11T22:04:54.721Z,99411.00
2018-11-11T22:05:58.579Z,99413.00
2018-11-11T22:07:02.306Z,99410.00
2018-11-11T22:08:05.819Z,99406.00
2018-11-11T22:09:09.741Z,99412.00
2018-11-11T22:10:14.663Z,99411.00
2018-11-11T22:11:18.587Z,99419.00
2018-11-11T22:12:22.376Z,99430.00
2018-11-11T22:13:26.305Z,99437.00
2018-11-11T22:14:29.987Z,99444.00
2018-11-11T22:15:33.796Z,99455.00
2018-11-11T22:16:37.487Z,99450.00
2018-11-11T22:17:41.464Z,99454.00
2018-11-11T22:18:45.071Z,99458.00
2018-11-11T22:19:48.975Z,99466.00
2018-11-11T22:20:52.584Z,99475.00
2018-11-11T22:21:56.563Z,99474.00
2018-11-11T22:23:00.208Z,99486.00
2018-11-11T22:24:04.061Z,99491.00
2018-11-11T22:25:07.672Z,99501.00
2018-11-11T22:26:11.233Z,99440.00
2018-11-11T22:27:14.810Z,99506.00
2018-11-11T22:28:18.384Z,99515.00
2018-11-11T22:29:22.005Z,99508.00
2018-11-11T22:30:25.589Z,99512.00
2018-11-11T22:31:29.188Z,99516.00
2018-11-11T22:32:33.010Z,99516.00
2018-11-11T22:33:36.618Z,99515.00
2018-11-11T22:34:40.495Z,99513.00
2018-11-11T22:35:44.010Z,99517.00
2018-11-11T22:36:47.822Z,99520.00
2018-11-11T22:37:51.502Z,99524.00
2018-11-11T22:38:55.359Z,99528.00
2018-11-11T22:39:59.118Z,99534.00
2018-11-11T22:41:03.168Z,99536.00
2018-11-11T22:42:06.837Z,99538.00
2018-11-11T22:43:10.563Z,99545.00
2018-11-11T22:44:14.144Z,99549.00
2018-11-11T22:45:18.030Z,99553.00
2018-11-11T22:46:21.439Z,99554.00
2018-11-11T22:47:25.422Z,99552.00
2018-11-11T22:48:29.123Z,99551.00
2018-11-11T22:49:32.908Z,99557.00
2018-11-11T22:50:36.487Z,99559.00
2018-11-11T22:51:40.235Z,99559.00
2018-11-11T22:52:44.072Z,99564.00
2018-11-11T22:53:47.882Z,99559.00
2018-11-11T22:54:51.451Z,99567.00
2018-11-11T22:55:55.043Z,99560.00
2018-11-11T22:56:58.567Z,99559.00
2018-11-11T22:58:01.988Z,99561.00
2018-11-11T22:59:05.651Z,99564.00
2018-11-11T23:00:12.624Z,99560.00
2018-11-11T23:01:22.008Z,99564.00
2018-11-11T23:02:25.427Z,99558.00
2018-11-11T23:03:28.894Z,99563.00
2018-11-11T23:04:32.315Z,99559.00
2018-11-11T23:05:36.091Z,99561.00
2018-11-11T23:06:39.703Z,99563.00
2018-11-11T23:07:43.595Z,99569.00
2018-11-11T23:08:47.327Z,99574.00
2018-11-11T23:09:51.191Z,99574.00
2018-11-11T23:10:54.810Z,99577.00
2018-11-11T23:11:58.578Z,99577.00
2018-11-11T23:13:02.162Z,99579.00
2018-11-11T23:14:05.935Z,99578.00
2018-11-11T23:15:09.540Z,99571.00
2018-11-11T23:16:13.462Z,99570.00
2018-11-11T23:17:17.059Z,99581.00
2018-11-11T23:18:20.903Z,99587.00
2018-11-11T23:19:24.600Z,99593.00
2018-11-11T23:20:28.394Z,99589.00
2018-11-11T23:21:32.085Z,99596.00
2018-11-11T23:22:35.590Z,99597.00
2018-11-11T23:23:39.378Z,99596.00
2018-11-11T23:24:42.932Z,99597.00
2018-11-11T23:25:46.683Z,99600.00
2018-11-11T23:26:50.179Z,99603.00
2018-11-11T23:27:53.578Z,99600.00
2018-11-11T23:28:57.259Z,99603.00
2018-11-11T23:30:00.850Z,99604.00
2018-11-11T23:31:04.611Z,99603.00
2018-11-11T23:32:08.230Z,99605.00
2018-11-11T23:33:12.027Z,99604.00
2018-11-11T23:34:15.403Z,99605.00
2018-11-11T23:35:18.915Z,99605.00
2018-11-11T23:36:22.697Z,99605.00
2018-11-11T23:37:26.296Z,99606.00
2018-11-11T23:38:29.954Z,99598.00
2018-11-11T23:39:33.380Z,99593.00
2018-11-11T23:40:36.876Z,99588.00
2018-11-11T23:41:40.666Z,99586.00
2018-11-11T23:42:44.800Z,99581.00
2018-11-11T23:43:48.656Z,99578.00
2018-11-11T23:44:52.528Z,99576.00
2018-11-11T23:45:56.119Z,99572.00
2018-11-11T23:47:00.032Z,99572.00
2018-11-11T23:48:03.724Z,99563.00
2018-11-11T23:49:07.527Z,99561.00
2018-11-11T23:50:11.233Z,99566.00
2018-11-11T23:51:15.021Z,99561.00
2018-11-11T23:52:18.613Z,99559.00
2018-11-11T23:53:22.393Z,99558.00
2018-11-11T23:54:26.099Z,99561.00
2018-11-11T23:55:29.838Z,99565.00
2018-11-11T23:56:32.999Z,99559.00
2018-11-11T23:57:36.647Z,99559.00
2018-11-11T23:58:40.584Z,99553.00
2018-11-11T23:59:44.277Z,99553.00
